createdAt,value
2019-01-17T00:01:12.166Z,45.70
2019-01-17T00:03:44.664Z,45.70
2019-01-17T00:06:17.682Z,45.80
2019-01-17T00:08:53.758Z,45.70
2019-01-17T00:11:35.762Z,45.80
2019-01-17T00:14:05.898Z,45.80
2019-01-17T00:16:35.914Z,45.70
2019-01-17T00:19:14.951Z,45.70
2019-01-17T00:21:47.985Z,45.70
2019-01-17T00:24:17.920Z,45.30
2019-01-17T00:26:47.922Z,45.90
2019-01-17T00:29:20.590Z,46.00
2019-01-17T00:31:56.370Z,46.10
2019-01-17T00:34:39.043Z,45.30
2019-01-17T00:37:11.747Z,45.90
2019-01-17T00:39:57.063Z,45.90
2019-01-17T00:42:39.278Z,46.00
2019-01-17T00:45:27.791Z,45.40
2019-01-17T00:48:00.652Z,46.00
2019-01-17T00:50:30.574Z,45.90
2019-01-17T00:53:12.489Z,46.00
2019-01-17T00:55:42.463Z,45.40
2019-01-17T00:58:30.794Z,46.00
2019-01-17T01:01:03.490Z,45.40
2019-01-17T01:03:50.041Z,46.10
2019-01-17T01:06:36.235Z,46.00
2019-01-17T01:09:24.432Z,45.50
2019-01-17T01:11:54.451Z,45.50
2019-01-17T01:14:27.131Z,46.10
2019-01-17T01:17:14.923Z,46.10
2019-01-17T01:19:44.953Z,46.10
2019-01-17T01:22:30.170Z,46.10
2019-01-17T01:25:00.167Z,46.20
2019-01-17T01:27:39.098Z,46.10
2019-01-17T01:30:28.340Z,46.10
2019-01-17T01:33:07.524Z,46.20
2019-01-17T01:35:46.426Z,46.10
2019-01-17T01:38:16.387Z,46.10
2019-01-17T01:40:46.396Z,46.20
2019-01-17T01:43:16.339Z,46.20
2019-01-17T01:45:52.304Z,46.20
2019-01-17T01:48:25.163Z,46.10
2019-01-17T01:50:55.114Z,46.10
2019-01-17T01:53:23.482Z,46.10
2019-01-17T01:55:51.834Z,46.20
2019-01-17T01:58:20.205Z,46.20
2019-01-17T02:00:48.511Z,46.20
2019-01-17T02:03:16.891Z,46.50
2019-01-17T02:05:45.267Z,46.20
2019-01-17T02:08:13.594Z,46.30
2019-01-17T02:10:42.003Z,46.30
2019-01-17T02:13:10.455Z,46.30
2019-01-17T02:15:38.831Z,46.20
2019-01-17T02:18:07.191Z,46.20
2019-01-17T02:20:35.611Z,46.20
2019-01-17T02:23:05.114Z,46.30
2019-01-17T02:25:33.475Z,46.20
2019-01-17T02:28:01.854Z,46.20
2019-01-17T02:30:30.158Z,46.20
2019-01-17T02:32:58.460Z,46.50
2019-01-17T02:35:26.774Z,46.20
2019-01-17T02:37:56.357Z,46.20
2019-01-17T02:40:24.751Z,46.30
2019-01-17T02:42:53.112Z,46.20
2019-01-17T02:45:21.409Z,46.20
2019-01-17T02:47:49.735Z,46.20
2019-01-17T02:50:18.103Z,46.20
2019-01-17T02:52:46.439Z,46.20
2019-01-17T02:55:14.769Z,46.10
2019-01-17T02:57:43.205Z,46.20
2019-01-17T03:00:14.364Z,46.30
2019-01-17T03:02:42.687Z,46.20
2019-01-17T03:05:11.051Z,46.10
2019-01-17T03:07:39.339Z,46.20
2019-01-17T03:10:10.917Z,46.30
2019-01-17T03:12:39.279Z,46.30
2019-01-17T03:15:07.939Z,46.20
2019-01-17T03:17:36.392Z,46.20
2019-01-17T03:20:07.973Z,46.20
2019-01-17T03:22:36.276Z,46.60
2019-01-17T03:25:06.772Z,46.20
2019-01-17T03:27:35.074Z,46.20
2019-01-17T03:30:04.878Z,46.10
2019-01-17T03:32:33.264Z,46.10
2019-01-17T03:35:01.579Z,46.30
2019-01-17T03:37:29.954Z,46.10
2019-01-17T03:39:58.332Z,46.80
2019-01-17T03:42:26.702Z,46.10
2019-01-17T03:44:55.120Z,46.10
2019-01-17T03:47:23.559Z,46.00
2019-01-17T03:49:51.875Z,46.00
2019-01-17T03:52:20.244Z,46.00
2019-01-17T03:54:52.819Z,46.20
2019-01-17T03:57:18.664Z,46.10
2019-01-17T03:59:47.052Z,46.00
2019-01-17T04:02:15.439Z,46.00
2019-01-17T04:04:44.014Z,46.00
2019-01-17T04:07:12.396Z,47.00
2019-01-17T04:09:40.772Z,45.90
2019-01-17T04:12:09.071Z,46.10
2019-01-17T04:14:37.508Z,45.90
2019-01-17T04:17:05.874Z,45.90
2019-01-17T04:19:34.176Z,45.90
2019-01-17T04:22:02.459Z,45.90
2019-01-17T04:24:30.772Z,45.90
2019-01-17T04:26:59.065Z,46.00
2019-01-17T04:29:27.452Z,45.90
2019-01-17T04:31:55.821Z,45.90
2019-01-17T04:34:24.120Z,45.90
2019-01-17T04:36:52.499Z,45.90
2019-01-17T04:39:20.943Z,45.80
2019-01-17T04:41:49.238Z,45.90
2019-01-17T04:44:17.599Z,45.80
2019-01-17T04:46:45.975Z,45.80
2019-01-17T04:49:14.339Z,45.80
2019-01-17T04:51:42.691Z,45.80
2019-01-17T04:54:11.043Z,45.90
2019-01-17T04:56:39.436Z,45.80
2019-01-17T04:59:07.782Z,45.20
2019-01-17T05:01:36.082Z,45.80
2019-01-17T05:04:04.382Z,45.70
2019-01-17T05:06:32.663Z,46.00
2019-01-17T05:09:01.041Z,45.70
2019-01-17T05:11:29.389Z,45.80
2019-01-17T05:13:57.750Z,45.80
2019-01-17T05:16:26.075Z,45.70
2019-01-17T05:18:54.476Z,45.70
2019-01-17T05:21:22.907Z,45.80
2019-01-17T05:23:51.289Z,45.70
2019-01-17T05:26:19.615Z,45.70
2019-01-17T05:28:48.020Z,46.00
2019-01-17T05:31:16.483Z,45.80
2019-01-17T05:33:44.819Z,45.70
2019-01-17T05:36:13.095Z,45.70
2019-01-17T05:38:41.408Z,45.60
2019-01-17T05:41:09.771Z,45.70
2019-01-17T05:43:38.131Z,45.80
2019-01-17T05:46:06.506Z,45.80
2019-01-17T05:48:34.796Z,45.70
2019-01-17T05:51:03.379Z,45.60
2019-01-17T05:53:31.834Z,45.60
2019-01-17T05:56:00.123Z,46.10
2019-01-17T05:58:28.404Z,45.90
2019-01-17T06:00:56.728Z,45.60
2019-01-17T06:03:25.165Z,45.60
2019-01-17T06:05:53.473Z,45.60
2019-01-17T06:08:21.843Z,45.60
2019-01-17T06:10:50.235Z,45.60
2019-01-17T06:13:18.755Z,45.60
2019-01-17T06:15:48.720Z,45.60
2019-01-17T06:18:17.090Z,45.60
2019-01-17T06:20:45.466Z,45.60
2019-01-17T06:23:13.836Z,45.80
2019-01-17T06:25:42.158Z,45.00
2019-01-17T06:28:10.490Z,45.60
2019-01-17T06:30:38.820Z,45.60
2019-01-17T06:33:07.178Z,45.60
2019-01-17T06:35:35.459Z,45.70
2019-01-17T06:38:03.771Z,45.70
2019-01-17T06:40:32.057Z,45.60
2019-01-17T06:43:00.440Z,45.60
2019-01-17T06:45:28.852Z,45.50
2019-01-17T06:47:57.298Z,45.50
2019-01-17T06:50:25.715Z,45.40
2019-01-17T06:52:54.061Z,45.40
2019-01-17T06:55:22.463Z,45.40
2019-01-17T06:57:50.847Z,45.40
2019-01-17T07:00:19.293Z,45.30
2019-01-17T07:02:47.655Z,45.40
2019-01-17T07:05:16.095Z,45.30
2019-01-17T07:07:44.573Z,45.40
2019-01-17T07:10:17.659Z,45.30
2019-01-17T07:12:46.226Z,45.30
2019-01-17T07:15:14.843Z,45.30
2019-01-17T07:17:43.186Z,45.20
2019-01-17T07:20:15.795Z,45.30
2019-01-17T07:22:44.428Z,45.10
2019-01-17T07:25:13.220Z,45.20
2019-01-17T07:27:41.594Z,45.40
2019-01-17T07:30:23.646Z,45.10
2019-01-17T07:32:51.957Z,44.50
2019-01-17T07:35:20.367Z,45.10
2019-01-17T07:37:48.686Z,45.00
2019-01-17T07:40:16.999Z,45.10
2019-01-17T07:42:45.376Z,45.00
2019-01-17T07:45:22.749Z,45.00
2019-01-17T07:47:51.047Z,45.00
2019-01-17T07:50:19.414Z,44.90
2019-01-17T07:52:47.746Z,45.50
2019-01-17T07:55:16.136Z,45.00
2019-01-17T07:57:44.521Z,45.50
2019-01-17T08:00:15.763Z,44.80
2019-01-17T08:02:44.118Z,44.90
2019-01-17T08:05:12.467Z,45.00
2019-01-17T08:07:40.926Z,45.50
2019-01-17T08:10:14.859Z,45.00
2019-01-17T08:12:43.243Z,44.80
2019-01-17T08:15:13.187Z,44.80
2019-01-17T08:17:41.606Z,44.70
2019-01-17T08:20:13.316Z,44.70
2019-01-17T08:22:41.637Z,44.70
2019-01-17T08:25:11.066Z,44.70
2019-01-17T08:27:39.429Z,44.60
2019-01-17T08:30:19.714Z,44.50
2019-01-17T08:32:48.118Z,44.50
2019-01-17T08:35:17.142Z,44.50
2019-01-17T08:37:45.447Z,44.60
2019-01-17T08:40:20.472Z,44.50
2019-01-17T08:42:48.986Z,44.50
2019-01-17T08:45:17.331Z,44.40
2019-01-17T08:47:45.700Z,45.00
2019-01-17T08:50:15.622Z,44.30
2019-01-17T08:52:44.069Z,44.40
2019-01-17T08:55:12.419Z,44.40
2019-01-17T08:57:40.727Z,44.30
2019-01-17T09:00:14.843Z,44.30
2019-01-17T09:02:43.283Z,44.30
2019-01-17T09:05:11.656Z,44.20
2019-01-17T09:07:39.958Z,44.20
2019-01-17T09:10:11.810Z,44.10
2019-01-17T09:12:40.164Z,44.30
2019-01-17T09:15:11.886Z,44.00
2019-01-17T09:17:40.199Z,44.10
2019-01-17T09:20:11.603Z,44.00
2019-01-17T09:22:39.920Z,44.00
2019-01-17T09:25:10.945Z,44.00
2019-01-17T09:27:39.335Z,44.20
2019-01-17T09:30:26.193Z,41.20
2019-01-17T09:33:50.461Z,43.80
2019-01-17T09:44:53.768Z,44.30
2019-01-17T09:47:22.391Z,45.30
2019-01-17T09:49:51.054Z,45.10
2019-01-17T09:52:19.860Z,44.60
2019-01-17T09:54:48.478Z,45.00
2019-01-17T09:57:17.070Z,45.30
2019-01-17T09:59:46.372Z,45.50
2019-01-17T10:02:16.407Z,45.00
2019-01-17T10:04:48.245Z,45.00
2019-01-17T10:07:16.615Z,45.10
2019-01-17T10:09:44.978Z,45.90
2019-01-17T10:12:13.471Z,46.20
2019-01-17T10:14:41.815Z,46.30
2019-01-17T10:17:14.543Z,46.50
2019-01-17T10:19:49.080Z,45.60
2019-01-17T10:22:39.194Z,45.60
2019-01-17T10:25:16.584Z,45.00
2019-01-17T10:27:54.202Z,45.10
2019-01-17T10:30:46.299Z,45.50
2019-01-17T10:33:20.550Z,44.70
2019-01-17T10:36:01.224Z,44.60
2019-01-17T10:38:38.280Z,43.70
2019-01-17T10:41:32.481Z,44.10
2019-01-17T10:44:06.799Z,43.40
2019-01-17T10:46:56.543Z,43.30
2019-01-17T10:49:43.353Z,43.20
2019-01-17T10:52:31.738Z,43.10
2019-01-17T10:55:25.690Z,43.00
2019-01-17T10:58:12.411Z,42.90
2019-01-17T11:01:01.986Z,42.80
2019-01-17T11:03:45.336Z,42.80
2019-01-17T11:06:22.790Z,42.60
2019-01-17T11:09:03.301Z,42.50
2019-01-17T11:11:50.000Z,42.50
2019-01-17T11:14:38.074Z,42.50
2019-01-17T11:17:29.271Z,42.40
2019-01-17T11:20:12.740Z,42.40
2019-01-17T11:22:46.756Z,42.20
2019-01-17T11:25:30.393Z,42.20
2019-01-17T11:28:02.011Z,42.80
2019-01-17T11:30:42.206Z,42.60
2019-01-17T11:33:22.670Z,41.90
2019-01-17T11:36:00.006Z,41.90
2019-01-17T11:38:55.723Z,41.80
2019-01-17T11:41:32.839Z,41.80
2019-01-17T11:44:20.831Z,42.40
2019-01-17T11:47:01.214Z,41.80
2019-01-17T11:49:49.267Z,41.80
2019-01-17T11:52:55.774Z,41.70
2019-01-17T11:55:43.897Z,41.60
2019-01-17T11:58:39.725Z,41.50
2019-01-17T12:01:33.542Z,41.50
2019-01-17T12:04:30.778Z,41.30
2019-01-17T12:07:01.487Z,41.40
2019-01-17T12:09:29.774Z,41.80
2019-01-17T12:12:01.369Z,40.80
2019-01-17T12:14:32.670Z,41.90
2019-01-17T12:17:05.658Z,42.00
2019-01-17T12:19:41.037Z,42.00
2019-01-17T12:22:17.581Z,42.20
2019-01-17T12:24:54.777Z,41.80
2019-01-17T12:27:29.507Z,41.80
2019-01-17T12:30:27.249Z,42.00
2019-01-17T12:33:02.332Z,42.10
2019-01-17T12:35:36.786Z,42.00
2019-01-17T12:38:09.957Z,41.80
2019-01-17T12:40:43.563Z,42.30
2019-01-17T12:43:16.096Z,42.80
2019-01-17T12:48:45.221Z,41.20
2019-01-17T12:51:21.430Z,41.20
2019-01-17T12:53:56.494Z,41.10
2019-01-17T12:56:32.749Z,41.50
2019-01-17T12:59:06.351Z,40.90
2019-01-17T13:01:41.587Z,39.80
2019-01-17T13:04:13.096Z,40.10
2019-01-17T13:06:54.166Z,39.80
2019-01-17T13:09:26.417Z,39.60
2019-01-17T13:12:01.778Z,39.30
2019-01-17T13:14:37.133Z,39.80
2019-01-17T13:17:15.371Z,38.80
2019-01-17T13:19:46.595Z,38.50
2019-01-17T13:22:21.767Z,38.80
2019-01-17T13:24:57.813Z,37.70
2019-01-17T13:27:28.259Z,37.20
2019-01-17T13:30:07.576Z,37.60
2019-01-17T13:32:40.233Z,36.90
2019-01-17T13:35:13.011Z,37.80
2019-01-17T13:37:47.829Z,37.50
2019-01-17T13:40:25.259Z,37.70
2019-01-17T13:42:56.350Z,38.00
2019-01-17T13:45:27.005Z,38.10
2019-01-17T13:47:57.726Z,39.00
2019-01-17T13:50:31.226Z,39.20
2019-01-17T13:53:00.217Z,38.80
2019-01-17T13:55:36.563Z,39.30
2019-01-17T13:58:16.710Z,38.80
2019-01-17T14:00:59.871Z,38.80
2019-01-17T14:03:33.669Z,38.70
2019-01-17T14:08:56.789Z,38.80
2019-01-17T14:11:30.987Z,38.80
2019-01-17T14:14:08.451Z,39.00
2019-01-17T14:16:44.827Z,38.80
2019-01-17T14:19:16.325Z,38.60
2019-01-17T14:21:49.505Z,38.80
2019-01-17T14:24:31.523Z,39.00
2019-01-17T14:27:00.056Z,39.00
2019-01-17T14:29:28.333Z,37.80
2019-01-17T14:31:56.621Z,37.10
2019-01-17T14:34:25.073Z,37.80
2019-01-17T14:36:53.376Z,37.90
2019-01-17T14:39:21.850Z,37.80
2019-01-17T14:41:50.342Z,38.70
2019-01-17T14:44:18.646Z,38.70
2019-01-17T14:46:46.979Z,38.80
2019-01-17T14:49:15.439Z,38.80
2019-01-17T14:51:43.830Z,38.80
2019-01-17T14:54:12.203Z,38.80
2019-01-17T14:56:40.673Z,39.00
2019-01-17T14:59:09.040Z,39.10
2019-01-17T15:01:37.338Z,39.30
2019-01-17T15:04:05.722Z,39.30
2019-01-17T15:06:34.158Z,39.20
2019-01-17T15:09:03.298Z,39.30
2019-01-17T15:11:31.702Z,37.80
2019-01-17T15:14:00.009Z,39.50
2019-01-17T15:16:28.455Z,39.20
2019-01-17T15:18:56.924Z,39.00
2019-01-17T15:21:25.308Z,39.20
2019-01-17T15:23:53.695Z,39.10
2019-01-17T15:26:22.204Z,39.20
2019-01-17T15:28:50.554Z,39.30
2019-01-17T15:31:18.856Z,39.50
2019-01-17T15:33:47.254Z,39.50
2019-01-17T15:36:15.614Z,39.50
2019-01-17T15:38:43.951Z,39.50
2019-01-17T15:41:12.357Z,39.00
2019-01-17T15:43:40.681Z,39.00
2019-01-17T15:46:09.055Z,39.60
2019-01-17T15:48:37.358Z,39.60
2019-01-17T15:51:05.731Z,39.80
2019-01-17T15:53:34.176Z,39.80
2019-01-17T15:56:02.559Z,39.80
2019-01-17T15:58:32.559Z,39.80
2019-01-17T16:01:00.871Z,39.30
2019-01-17T16:03:31.521Z,39.80
2019-01-17T16:06:00.005Z,39.80
2019-01-17T16:10:56.430Z,39.40
2019-01-17T16:13:24.751Z,39.90
2019-01-17T16:20:49.619Z,38.40
2019-01-17T16:23:18.026Z,39.30
2019-01-17T16:25:46.363Z,39.30
2019-01-17T16:28:14.682Z,39.40
2019-01-17T16:30:43.022Z,39.50
2019-01-17T16:33:11.450Z,38.80
2019-01-17T16:35:39.756Z,39.50
2019-01-17T16:38:08.126Z,39.60
2019-01-17T16:40:36.522Z,39.60
2019-01-17T16:43:04.810Z,39.70
2019-01-17T16:45:35.555Z,39.60
2019-01-17T16:48:03.123Z,39.10
2019-01-17T16:50:31.480Z,39.70
2019-01-17T16:52:59.754Z,39.80
2019-01-17T16:55:28.157Z,39.60
2019-01-17T16:57:56.515Z,39.00
2019-01-17T17:00:27.836Z,39.60
2019-01-17T17:02:56.128Z,39.10
2019-01-17T17:05:24.529Z,39.60
2019-01-17T17:07:52.895Z,39.10
2019-01-17T17:10:21.281Z,39.80
2019-01-17T17:12:49.711Z,39.70
2019-01-17T17:15:17.988Z,39.80
2019-01-17T17:17:46.308Z,39.80
2019-01-17T17:20:20.078Z,39.70
2019-01-17T17:22:48.558Z,39.20
2019-01-17T17:25:17.036Z,39.20
2019-01-17T17:27:45.390Z,39.70
2019-01-17T17:30:19.385Z,39.80
2019-01-17T17:32:47.783Z,39.20
2019-01-17T17:35:16.246Z,39.70
2019-01-17T17:37:44.532Z,39.70
2019-01-17T17:40:18.880Z,39.70
2019-01-17T17:42:47.191Z,39.20
2019-01-17T17:45:15.702Z,39.70
2019-01-17T17:47:44.089Z,39.70
2019-01-17T17:50:15.058Z,39.90
2019-01-17T17:52:43.364Z,39.80
2019-01-17T17:55:13.874Z,39.70
2019-01-17T17:57:42.295Z,39.80
2019-01-17T18:00:23.599Z,39.70
2019-01-17T18:02:52.439Z,39.20
2019-01-17T18:05:20.810Z,39.70
2019-01-17T18:07:49.109Z,39.70
2019-01-17T18:10:17.467Z,39.80
2019-01-17T18:12:45.818Z,39.70
2019-01-17T18:15:16.062Z,39.60
2019-01-17T18:17:44.443Z,39.20
2019-01-17T18:20:14.435Z,39.10
2019-01-17T18:22:42.734Z,39.80
2019-01-17T18:25:11.455Z,39.70
2019-01-17T18:27:39.746Z,39.70
2019-01-17T18:35:14.930Z,39.10
2019-01-17T18:40:16.128Z,39.10
2019-01-17T18:42:44.562Z,39.10
2019-01-17T18:45:15.643Z,39.70
2019-01-17T18:47:44.094Z,39.10
2019-01-17T18:50:24.131Z,39.10
2019-01-17T18:52:52.442Z,39.20
2019-01-17T18:55:20.728Z,39.80
2019-01-17T18:57:49.174Z,39.70
2019-01-17T19:00:20.463Z,39.70
2019-01-17T19:02:48.861Z,39.10
2019-01-17T19:05:17.247Z,39.80
2019-01-17T19:07:45.920Z,39.80
2019-01-17T19:10:16.446Z,39.70
2019-01-17T19:12:44.843Z,39.20
2019-01-17T19:15:16.296Z,39.70
2019-01-17T19:17:44.581Z,39.20
2019-01-17T19:20:15.401Z,39.80
2019-01-17T19:22:43.755Z,39.20
2019-01-17T19:25:12.194Z,39.70
2019-01-17T19:27:40.675Z,39.80
2019-01-17T19:30:32.759Z,39.70
2019-01-17T19:33:01.251Z,39.70
2019-01-17T19:35:29.523Z,39.70
2019-01-17T19:37:57.814Z,39.70
2019-01-17T19:40:28.367Z,39.70
2019-01-17T19:42:56.648Z,39.20
2019-01-17T19:45:24.962Z,39.70
2019-01-17T19:47:53.269Z,39.70
2019-01-17T19:50:24.896Z,39.10
2019-01-17T19:52:53.199Z,39.10
2019-01-17T19:55:21.591Z,39.70
2019-01-17T19:57:50.041Z,39.70
2019-01-17T20:00:19.850Z,39.70
2019-01-17T20:02:48.218Z,39.70
2019-01-17T20:05:19.468Z,39.60
2019-01-17T20:07:47.778Z,39.70
2019-01-17T20:10:22.334Z,39.60
2019-01-17T20:12:50.623Z,39.70
2019-01-17T20:15:18.898Z,39.70
2019-01-17T20:17:47.206Z,39.60
2019-01-17T20:20:18.779Z,39.70
2019-01-17T20:22:47.240Z,39.70
2019-01-17T20:25:15.543Z,39.70
2019-01-17T20:27:43.911Z,39.60
2019-01-17T20:30:20.535Z,39.70
2019-01-17T20:32:49.254Z,39.70
2019-01-17T20:35:17.623Z,39.70
2019-01-17T20:37:46.006Z,39.70
2019-01-17T20:40:17.024Z,39.60
2019-01-17T20:42:45.329Z,39.60
2019-01-17T20:45:13.786Z,39.60
2019-01-17T20:47:42.221Z,39.70
2019-01-17T20:50:12.900Z,39.70
2019-01-17T20:52:41.195Z,39.70
2019-01-17T20:55:11.427Z,39.80
2019-01-17T20:57:40.100Z,39.70
2019-01-17T21:00:11.731Z,39.70
2019-01-17T21:02:40.142Z,39.60
2019-01-17T21:05:09.078Z,39.60
2019-01-17T21:07:37.447Z,39.60
2019-01-17T21:10:26.781Z,39.30
2019-01-17T21:12:55.171Z,39.80
2019-01-17T21:15:23.530Z,39.70
2019-01-17T21:17:51.971Z,39.70
2019-01-17T21:20:21.262Z,39.60
2019-01-17T21:22:49.624Z,39.70
2019-01-17T21:25:21.303Z,39.70
2019-01-17T21:27:49.699Z,39.80
2019-01-17T21:30:23.036Z,39.70
2019-01-17T21:32:51.381Z,39.60
2019-01-17T21:35:19.794Z,39.60
2019-01-17T21:37:48.091Z,39.60
2019-01-17T21:40:21.212Z,39.60
2019-01-17T21:42:49.591Z,39.70
2019-01-17T21:45:18.776Z,39.70
2019-01-17T21:47:47.334Z,39.70
2019-01-17T21:50:27.848Z,39.50
2019-01-17T21:52:56.218Z,39.70
2019-01-17T21:55:24.786Z,39.70
2019-01-17T21:57:53.155Z,39.60
2019-01-17T22:00:23.941Z,39.50
2019-01-17T22:02:52.219Z,38.10
2019-01-17T22:05:20.515Z,39.70
2019-01-17T22:07:49.055Z,39.50
2019-01-17T22:10:18.503Z,39.60
2019-01-17T22:12:46.893Z,39.50
2019-01-17T22:15:25.950Z,39.60
2019-01-17T22:17:54.330Z,39.10
2019-01-17T22:20:22.815Z,39.80
2019-01-17T22:22:51.180Z,39.80
2019-01-17T22:25:20.704Z,40.00
2019-01-17T22:27:51.194Z,40.00
2019-01-17T22:30:27.599Z,40.10
2019-01-17T22:32:55.998Z,40.00
2019-01-17T22:35:24.308Z,40.10
2019-01-17T22:37:52.675Z,40.20
2019-01-17T22:40:20.985Z,40.50
2019-01-17T22:42:49.551Z,40.20
2019-01-17T22:45:26.371Z,39.70
2019-01-17T22:47:54.671Z,40.30
2019-01-17T22:50:22.955Z,40.30
2019-01-17T22:52:51.790Z,40.30
2019-01-17T22:55:20.134Z,40.40
2019-01-17T22:57:48.511Z,40.40
2019-01-17T23:00:51.869Z,40.40
2019-01-17T23:03:23.014Z,39.80
2019-01-17T23:05:51.377Z,40.50
2019-01-17T23:08:19.756Z,40.50
2019-01-17T23:10:48.035Z,40.50
2019-01-17T23:13:16.310Z,40.40
2019-01-17T23:15:44.623Z,40.50
2019-01-17T23:18:13.003Z,40.50
2019-01-17T23:20:41.363Z,40.50
2019-01-17T23:23:09.708Z,40.50
2019-01-17T23:25:38.084Z,40.50
2019-01-17T23:28:06.437Z,40.50
2019-01-17T23:30:34.957Z,40.50
2019-01-17T23:33:03.318Z,40.50
2019-01-17T23:35:31.599Z,40.50
2019-01-17T23:37:59.920Z,40.50
2019-01-17T23:40:28.278Z,40.50
2019-01-17T23:42:56.669Z,40.50
2019-01-17T23:45:24.998Z,40.50
2019-01-17T23:47:53.385Z,40.60
2019-01-17T23:50:21.743Z,40.60
2019-01-17T23:52:50.079Z,40.50
2019-01-17T23:55:18.426Z,40.60
2019-01-17T23:57:46.739Z,40.50
